Kamyslov, Russia
Current Conditions -  °F | °C
As of 4:00 PM on Sunday 23 Nov 2014 (Local Time) from USSS Reporting Station
Few Clouds Few Clouds  
Wind Chill: -15°   Ceiling: Unl
Heat Index:   Visibility: 6mi
Dew Point: -8°   Wind: 11mph
Humidity: 66%   Direction: 360°N
Pressure: 30.3"   Gusts: NA
Location:  56.85°N, 62.72°E
Report Text: USSS 231100Z 36005MPS 9999 FEW033 M17/M22 Q1026 76810350 NOSIGRMK QFE749
Loading
Personal Weather Stations






























Interactive Weather Map New forecast layout! Learn more

10-Day Weather Forecast

Advertisements
Track Severe Weather on mobile